sensor_id;sensor_type;location;lat;lon;timestamp;P1;durP1;ratioP1;P2;durP2;ratioP2
64197;SDS011;50512;53.666;9.700;2023-07-20T00:01:11;7.00;;;3.15;;
64197;SDS011;50512;53.666;9.700;2023-07-20T00:03:38;5.75;;;3.03;;
64197;SDS011;50512;53.666;9.700;2023-07-20T00:06:04;5.32;;;2.78;;
64197;SDS011;50512;53.666;9.700;2023-07-20T00:08:31;4.82;;;3.13;;
64197;SDS011;50512;53.666;9.700;2023-07-20T00:10:58;8.55;;;3.33;;
64197;SDS011;50512;53.666;9.700;2023-07-20T00:13:24;10.43;;;3.33;;
64197;SDS011;50512;53.666;9.700;2023-07-20T00:15:52;5.97;;;3.40;;
64197;SDS011;50512;53.666;9.700;2023-07-20T00:18:18;8.32;;;3.88;;
64197;SDS011;50512;53.666;9.700;2023-07-20T00:20:46;5.43;;;3.35;;
64197;SDS011;50512;53.666;9.700;2023-07-20T00:23:12;10.82;;;3.83;;
64197;SDS011;50512;53.666;9.700;2023-07-20T00:25:39;8.20;;;3.83;;
64197;SDS011;50512;53.666;9.700;2023-07-20T00:28:05;7.53;;;4.40;;
64197;SDS011;50512;53.666;9.700;2023-07-20T00:30:32;7.55;;;4.15;;
64197;SDS011;50512;53.666;9.700;2023-07-20T00:33:00;9.20;;;4.90;;
64197;SDS011;50512;53.666;9.700;2023-07-20T00:35:26;8.93;;;5.13;;
64197;SDS011;50512;53.666;9.700;2023-07-20T00:37:53;8.73;;;4.68;;
64197;SDS011;50512;53.666;9.700;2023-07-20T00:40:19;11.68;;;5.35;;
64197;SDS011;50512;53.666;9.700;2023-07-20T00:42:46;9.68;;;6.00;;
64197;SDS011;50512;53.666;9.700;2023-07-20T00:45:12;11.98;;;5.90;;
64197;SDS011;50512;53.666;9.700;2023-07-20T00:47:39;10.93;;;5.90;;
64197;SDS011;50512;53.666;9.700;2023-07-20T00:50:07;8.80;;;5.00;;
64197;SDS011;50512;53.666;9.700;2023-07-20T00:52:35;11.43;;;6.20;;
64197;SDS011;50512;53.666;9.700;2023-07-20T00:55:04;10.07;;;5.68;;
64197;SDS011;50512;53.666;9.700;2023-07-20T00:57:31;9.30;;;5.93;;
64197;SDS011;50512;53.666;9.700;2023-07-20T00:59:58;12.85;;;5.70;;
64197;SDS011;50512;53.666;9.700;2023-07-20T01:02:24;12.10;;;6.38;;
64197;SDS011;50512;53.666;9.700;2023-07-20T01:04:51;13.65;;;5.53;;
64197;SDS011;50512;53.666;9.700;2023-07-20T01:07:21;14.07;;;7.00;;
64197;SDS011;50512;53.666;9.700;2023-07-20T01:09:52;12.57;;;6.03;;
64197;SDS011;50512;53.666;9.700;2023-07-20T01:12:27;13.40;;;6.50;;
64197;SDS011;50512;53.666;9.700;2023-07-20T01:14:59;16.02;;;6.88;;
64197;SDS011;50512;53.666;9.700;2023-07-20T01:17:25;14.57;;;7.40;;
64197;SDS011;50512;53.666;9.700;2023-07-20T01:19:52;13.50;;;6.30;;
64197;SDS011;50512;53.666;9.700;2023-07-20T01:22:26;14.20;;;6.38;;
64197;SDS011;50512;53.666;9.700;2023-07-20T01:25:14;14.52;;;6.70;;
64197;SDS011;50512;53.666;9.700;2023-07-20T01:28:06;11.98;;;6.47;;
64197;SDS011;50512;53.666;9.700;2023-07-20T01:30:52;12.13;;;6.47;;
64197;SDS011;50512;53.666;9.700;2023-07-20T01:33:26;12.40;;;6.28;;
64197;SDS011;50512;53.666;9.700;2023-07-20T01:35:56;15.07;;;6.32;;
64197;SDS011;50512;53.666;9.700;2023-07-20T01:38:24;13.48;;;6.78;;
64197;SDS011;50512;53.666;9.700;2023-07-20T01:40:51;13.50;;;7.15;;
64197;SDS011;50512;53.666;9.700;2023-07-20T01:43:18;12.45;;;7.13;;
64197;SDS011;50512;53.666;9.700;2023-07-20T01:45:45;14.13;;;6.88;;
64197;SDS011;50512;53.666;9.700;2023-07-20T01:48:11;15.48;;;7.50;;
64197;SDS011;50512;53.666;9.700;2023-07-20T01:50:39;15.20;;;7.57;;
64197;SDS011;50512;53.666;9.700;2023-07-20T01:53:06;17.80;;;7.63;;
64197;SDS011;50512;53.666;9.700;2023-07-20T01:55:32;15.75;;;7.90;;
64197;SDS011;50512;53.666;9.700;2023-07-20T01:57:58;18.83;;;7.35;;
64197;SDS011;50512;53.666;9.700;2023-07-20T02:00:26;16.88;;;8.02;;
64197;SDS011;50512;53.666;9.700;2023-07-20T02:02:53;17.23;;;8.10;;
64197;SDS011;50512;53.666;9.700;2023-07-20T02:05:19;17.77;;;8.30;;
64197;SDS011;50512;53.666;9.700;2023-07-20T02:07:47;16.95;;;7.78;;
64197;SDS011;50512;53.666;9.700;2023-07-20T02:10:14;16.85;;;8.30;;
64197;SDS011;50512;53.666;9.700;2023-07-20T02:12:40;17.98;;;7.65;;
64197;SDS011;50512;53.666;9.700;2023-07-20T02:15:07;15.50;;;7.30;;
64197;SDS011;50512;53.666;9.700;2023-07-20T02:17:34;17.75;;;7.57;;
64197;SDS011;50512;53.666;9.700;2023-07-20T02:20:02;14.68;;;7.38;;
64197;SDS011;50512;53.666;9.700;2023-07-20T02:22:29;14.02;;;6.85;;
64197;SDS011;50512;53.666;9.700;2023-07-20T02:24:56;15.48;;;7.30;;
64197;SDS011;50512;53.666;9.700;2023-07-20T02:27:23;13.32;;;6.68;;
64197;SDS011;50512;53.666;9.700;2023-07-20T02:29:49;15.18;;;7.10;;
64197;SDS011;50512;53.666;9.700;2023-07-20T02:32:16;12.27;;;6.72;;
64197;SDS011;50512;53.666;9.700;2023-07-20T02:34:42;14.57;;;6.40;;
64197;SDS011;50512;53.666;9.700;2023-07-20T02:37:09;13.00;;;6.65;;
64197;SDS011;50512;53.666;9.700;2023-07-20T02:39:38;12.18;;;6.13;;
64197;SDS011;50512;53.666;9.700;2023-07-20T02:42:06;10.30;;;6.30;;
64197;SDS011;50512;53.666;9.700;2023-07-20T02:44:32;11.98;;;6.20;;
64197;SDS011;50512;53.666;9.700;2023-07-20T02:46:59;10.95;;;5.82;;
64197;SDS011;50512;53.666;9.700;2023-07-20T02:49:25;10.18;;;5.60;;
64197;SDS011;50512;53.666;9.700;2023-07-20T02:51:52;11.30;;;5.40;;
64197;SDS011;50512;53.666;9.700;2023-07-20T02:54:19;14.95;;;6.60;;
64197;SDS011;50512;53.666;9.700;2023-07-20T02:56:45;10.27;;;5.32;;
64197;SDS011;50512;53.666;9.700;2023-07-20T02:59:13;9.65;;;6.03;;
64197;SDS011;50512;53.666;9.700;2023-07-20T03:01:40;10.98;;;5.32;;
64197;SDS011;50512;53.666;9.700;2023-07-20T03:04:07;9.35;;;4.90;;
64197;SDS011;50512;53.666;9.700;2023-07-20T03:06:35;9.77;;;5.22;;
64197;SDS011;50512;53.666;9.700;2023-07-20T03:09:01;10.57;;;5.38;;
64197;SDS011;50512;53.666;9.700;2023-07-20T03:11:28;9.40;;;4.90;;
64197;SDS011;50512;53.666;9.700;2023-07-20T03:13:55;9.65;;;5.28;;
64197;SDS011;50512;53.666;9.700;2023-07-20T03:16:23;9.75;;;5.50;;
64197;SDS011;50512;53.666;9.700;2023-07-20T03:18:50;8.65;;;5.22;;
64197;SDS011;50512;53.666;9.700;2023-07-20T03:21:16;9.85;;;5.15;;
64197;SDS011;50512;53.666;9.700;2023-07-20T03:23:43;11.23;;;5.95;;
64197;SDS011;50512;53.666;9.700;2023-07-20T03:26:09;9.55;;;4.97;;
64197;SDS011;50512;53.666;9.700;2023-07-20T03:28:36;10.88;;;5.57;;
64197;SDS011;50512;53.666;9.700;2023-07-20T03:31:03;12.02;;;6.10;;
64197;SDS011;50512;53.666;9.700;2023-07-20T03:33:31;11.63;;;5.60;;
64197;SDS011;50512;53.666;9.700;2023-07-20T03:35:58;12.90;;;5.97;;
64197;SDS011;50512;53.666;9.700;2023-07-20T03:38:25;12.80;;;5.55;;
64197;SDS011;50512;53.666;9.700;2023-07-20T03:40:53;10.02;;;5.20;;
64197;SDS011;50512;53.666;9.700;2023-07-20T03:43:20;12.02;;;5.95;;
64197;SDS011;50512;53.666;9.700;2023-07-20T03:45:47;9.73;;;5.28;;
64197;SDS011;50512;53.666;9.700;2023-07-20T03:48:15;10.00;;;4.97;;
64197;SDS011;50512;53.666;9.700;2023-07-20T03:50:44;12.82;;;5.97;;
64197;SDS011;50512;53.666;9.700;2023-07-20T03:53:11;10.43;;;5.50;;
64197;SDS011;50512;53.666;9.700;2023-07-20T03:55:37;10.38;;;5.25;;
64197;SDS011;50512;53.666;9.700;2023-07-20T03:58:05;11.10;;;5.80;;
64197;SDS011;50512;53.666;9.700;2023-07-20T04:00:32;10.93;;;6.05;;
64197;SDS011;50512;53.666;9.700;2023-07-20T04:02:58;9.52;;;5.35;;
64197;SDS011;50512;53.666;9.700;2023-07-20T04:05:25;10.82;;;5.13;;
64197;SDS011;50512;53.666;9.700;2023-07-20T04:07:53;11.38;;;5.32;;
64197;SDS011;50512;53.666;9.700;2023-07-20T04:10:19;11.20;;;5.75;;
64197;SDS011;50512;53.666;9.700;2023-07-20T04:12:46;10.40;;;5.38;;
64197;SDS011;50512;53.666;9.700;2023-07-20T04:15:12;11.18;;;5.72;;
64197;SDS011;50512;53.666;9.700;2023-07-20T04:17:39;10.60;;;5.68;;
64197;SDS011;50512;53.666;9.700;2023-07-20T04:20:06;9.63;;;5.95;;
64197;SDS011;50512;53.666;9.700;2023-07-20T04:22:33;12.30;;;6.43;;
64197;SDS011;50512;53.666;9.700;2023-07-20T04:25:01;10.25;;;5.40;;
64197;SDS011;50512;53.666;9.700;2023-07-20T04:27:27;10.23;;;5.60;;
64197;SDS011;50512;53.666;9.700;2023-07-20T04:29:54;9.55;;;5.28;;
64197;SDS011;50512;53.666;9.700;2023-07-20T04:32:20;12.93;;;5.90;;
64197;SDS011;50512;53.666;9.700;2023-07-20T04:34:47;13.52;;;5.93;;
64197;SDS011;50512;53.666;9.700;2023-07-20T04:37:13;12.43;;;5.70;;
64197;SDS011;50512;53.666;9.700;2023-07-20T04:39:40;14.05;;;6.65;;
64197;SDS011;50512;53.666;9.700;2023-07-20T04:42:08;12.25;;;6.22;;
64197;SDS011;50512;53.666;9.700;2023-07-20T04:44:34;11.35;;;5.50;;
64197;SDS011;50512;53.666;9.700;2023-07-20T04:47:01;14.27;;;5.72;;
64197;SDS011;50512;53.666;9.700;2023-07-20T04:49:27;11.98;;;6.22;;
64197;SDS011;50512;53.666;9.700;2023-07-20T04:51:54;10.23;;;5.82;;
64197;SDS011;50512;53.666;9.700;2023-07-20T04:54:20;13.85;;;6.70;;
64197;SDS011;50512;53.666;9.700;2023-07-20T04:56:46;14.70;;;6.28;;
64197;SDS011;50512;53.666;9.700;2023-07-20T04:59:14;10.80;;;5.97;;
64197;SDS011;50512;53.666;9.700;2023-07-20T05:01:41;9.63;;;5.90;;
64197;SDS011;50512;53.666;9.700;2023-07-20T05:04:07;14.98;;;6.30;;
64197;SDS011;50512;53.666;9.700;2023-07-20T05:06:34;9.82;;;5.50;;
64197;SDS011;50512;53.666;9.700;2023-07-20T05:09:00;11.68;;;5.75;;
64197;SDS011;50512;53.666;9.700;2023-07-20T05:11:27;11.75;;;5.95;;
64197;SDS011;50512;53.666;9.700;2023-07-20T05:13:53;11.07;;;6.35;;
64197;SDS011;50512;53.666;9.700;2023-07-20T05:16:21;10.75;;;5.82;;
64197;SDS011;50512;53.666;9.700;2023-07-20T05:18:47;14.27;;;6.38;;
64197;SDS011;50512;53.666;9.700;2023-07-20T05:21:14;12.35;;;5.28;;
64197;SDS011;50512;53.666;9.700;2023-07-20T05:23:40;10.88;;;5.60;;
64197;SDS011;50512;53.666;9.700;2023-07-20T05:26:07;14.48;;;5.65;;
64197;SDS011;50512;53.666;9.700;2023-07-20T05:28:34;8.88;;;5.45;;
64197;SDS011;50512;53.666;9.700;2023-07-20T05:31:02;8.88;;;5.00;;
64197;SDS011;50512;53.666;9.700;2023-07-20T05:33:30;10.40;;;5.13;;
64197;SDS011;50512;53.666;9.700;2023-07-20T05:35:56;9.20;;;5.05;;
64197;SDS011;50512;53.666;9.700;2023-07-20T05:38:23;8.98;;;4.82;;
64197;SDS011;50512;53.666;9.700;2023-07-20T05:40:50;10.20;;;4.95;;
64197;SDS011;50512;53.666;9.700;2023-07-20T05:43:16;11.93;;;4.63;;
64197;SDS011;50512;53.666;9.700;2023-07-20T05:45:43;9.63;;;4.28;;
64197;SDS011;50512;53.666;9.700;2023-07-20T05:48:10;6.15;;;3.35;;
64197;SDS011;50512;53.666;9.700;2023-07-20T05:50:39;8.13;;;3.50;;
64197;SDS011;50512;53.666;9.700;2023-07-20T05:53:08;9.20;;;3.42;;
64197;SDS011;50512;53.666;9.700;2023-07-20T05:55:34;8.93;;;3.30;;
64197;SDS011;50512;53.666;9.700;2023-07-20T05:58:01;5.50;;;3.00;;
64197;SDS011;50512;53.666;9.700;2023-07-20T06:00:29;5.78;;;2.90;;
64197;SDS011;50512;53.666;9.700;2023-07-20T06:02:55;4.75;;;2.63;;
64197;SDS011;50512;53.666;9.700;2023-07-20T06:05:22;3.88;;;2.35;;
64197;SDS011;50512;53.666;9.700;2023-07-20T06:07:50;4.50;;;2.88;;
64197;SDS011;50512;53.666;9.700;2023-07-20T06:10:16;4.30;;;2.30;;
64197;SDS011;50512;53.666;9.700;2023-07-20T06:12:43;5.13;;;2.05;;
64197;SDS011;50512;53.666;9.700;2023-07-20T06:15:23;3.67;;;2.20;;
64197;SDS011;50512;53.666;9.700;2023-07-20T06:17:51;4.13;;;1.90;;
64197;SDS011;50512;53.666;9.700;2023-07-20T06:20:17;3.25;;;2.10;;
64197;SDS011;50512;53.666;9.700;2023-07-20T06:22:44;4.55;;;2.40;;
64197;SDS011;50512;53.666;9.700;2023-07-20T06:25:12;4.15;;;2.05;;
64197;SDS011;50512;53.666;9.700;2023-07-20T06:27:38;4.05;;;2.20;;
64197;SDS011;50512;53.666;9.700;2023-07-20T06:30:05;4.28;;;1.80;;
64197;SDS011;50512;53.666;9.700;2023-07-20T06:32:32;4.85;;;2.17;;
64197;SDS011;50512;53.666;9.700;2023-07-20T06:34:59;7.05;;;2.05;;
64197;SDS011;50512;53.666;9.700;2023-07-20T06:37:25;4.45;;;1.70;;
64197;SDS011;50512;53.666;9.700;2023-07-20T06:39:52;4.10;;;1.63;;
64197;SDS011;50512;53.666;9.700;2023-07-20T06:42:20;4.70;;;1.90;;
64197;SDS011;50512;53.666;9.700;2023-07-20T06:44:46;3.13;;;1.60;;
64197;SDS011;50512;53.666;9.700;2023-07-20T06:47:12;8.00;;;2.10;;
64197;SDS011;50512;53.666;9.700;2023-07-20T06:49:39;6.40;;;1.92;;
64197;SDS011;50512;53.666;9.700;2023-07-20T06:52:06;5.45;;;1.75;;
64197;SDS011;50512;53.666;9.700;2023-07-20T06:54:33;4.03;;;1.92;;
64197;SDS011;50512;53.666;9.700;2023-07-20T06:56:59;7.57;;;1.70;;
64197;SDS011;50512;53.666;9.700;2023-07-20T06:59:27;4.60;;;1.65;;
64197;SDS011;50512;53.666;9.700;2023-07-20T07:01:53;3.40;;;1.90;;
64197;SDS011;50512;53.666;9.700;2023-07-20T07:04:21;4.55;;;1.25;;
64197;SDS011;50512;53.666;9.700;2023-07-20T07:06:47;5.10;;;1.40;;
64197;SDS011;50512;53.666;9.700;2023-07-20T07:09:14;5.88;;;1.60;;
64197;SDS011;50512;53.666;9.700;2023-07-20T07:11:40;3.85;;;1.50;;
64197;SDS011;50512;53.666;9.700;2023-07-20T07:14:07;5.35;;;1.60;;
64197;SDS011;50512;53.666;9.700;2023-07-20T07:16:35;5.28;;;1.60;;
64197;SDS011;50512;53.666;9.700;2023-07-20T07:19:01;5.80;;;2.00;;
64197;SDS011;50512;53.666;9.700;2023-07-20T07:21:28;4.40;;;1.75;;
64197;SDS011;50512;53.666;9.700;2023-07-20T07:23:55;6.25;;;1.75;;
64197;SDS011;50512;53.666;9.700;2023-07-20T07:26:22;3.95;;;1.65;;
64197;SDS011;50512;53.666;9.700;2023-07-20T07:28:48;6.40;;;2.10;;
64197;SDS011;50512;53.666;9.700;2023-07-20T07:31:15;4.57;;;1.80;;
64197;SDS011;50512;53.666;9.700;2023-07-20T07:33:43;5.70;;;1.80;;
64197;SDS011;50512;53.666;9.700;2023-07-20T07:36:09;4.50;;;2.45;;
64197;SDS011;50512;53.666;9.700;2023-07-20T07:38:36;5.82;;;2.05;;
64197;SDS011;50512;53.666;9.700;2023-07-20T07:41:02;5.05;;;1.80;;
64197;SDS011;50512;53.666;9.700;2023-07-20T07:43:28;5.50;;;1.80;;
64197;SDS011;50512;53.666;9.700;2023-07-20T07:45:55;3.90;;;2.10;;
64197;SDS011;50512;53.666;9.700;2023-07-20T07:48:22;5.85;;;2.17;;
64197;SDS011;50512;53.666;9.700;2023-07-20T07:50:51;6.88;;;2.47;;
64197;SDS011;50512;53.666;9.700;2023-07-20T07:53:18;33.70;;;4.45;;
64197;SDS011;50512;53.666;9.700;2023-07-20T07:55:45;4.82;;;2.40;;
64197;SDS011;50512;53.666;9.700;2023-07-20T07:58:13;4.43;;;2.40;;
64197;SDS011;50512;53.666;9.700;2023-07-20T08:00:40;5.03;;;2.13;;
64197;SDS011;50512;53.666;9.700;2023-07-20T08:03:06;7.30;;;2.33;;
64197;SDS011;50512;53.666;9.700;2023-07-20T08:05:33;6.93;;;2.60;;
64197;SDS011;50512;53.666;9.700;2023-07-20T08:08:01;6.85;;;2.28;;
64197;SDS011;50512;53.666;9.700;2023-07-20T08:10:28;4.82;;;1.77;;
64197;SDS011;50512;53.666;9.700;2023-07-20T08:12:55;5.85;;;1.95;;
64197;SDS011;50512;53.666;9.700;2023-07-20T08:15:21;10.73;;;2.40;;
64197;SDS011;50512;53.666;9.700;2023-07-20T08:17:48;4.95;;;1.80;;
64197;SDS011;50512;53.666;9.700;2023-07-20T08:20:16;7.82;;;1.85;;
64197;SDS011;50512;53.666;9.700;2023-07-20T08:22:43;6.32;;;2.03;;
64197;SDS011;50512;53.666;9.700;2023-07-20T08:25:11;5.47;;;1.35;;
64197;SDS011;50512;53.666;9.700;2023-07-20T08:27:37;6.90;;;1.90;;
64197;SDS011;50512;53.666;9.700;2023-07-20T08:30:04;5.40;;;1.38;;
64197;SDS011;50512;53.666;9.700;2023-07-20T08:32:32;5.38;;;1.42;;
64197;SDS011;50512;53.666;9.700;2023-07-20T08:34:58;7.18;;;1.65;;
64197;SDS011;50512;53.666;9.700;2023-07-20T08:37:25;4.82;;;1.27;;
64197;SDS011;50512;53.666;9.700;2023-07-20T08:39:51;5.32;;;1.42;;
64197;SDS011;50512;53.666;9.700;2023-07-20T08:42:19;5.63;;;1.65;;
64197;SDS011;50512;53.666;9.700;2023-07-20T08:44:48;4.47;;;1.60;;
64197;SDS011;50512;53.666;9.700;2023-07-20T08:47:18;7.68;;;1.50;;
64197;SDS011;50512;53.666;9.700;2023-07-20T08:49:46;4.55;;;1.30;;
64197;SDS011;50512;53.666;9.700;2023-07-20T08:52:14;6.95;;;1.65;;
64197;SDS011;50512;53.666;9.700;2023-07-20T08:54:41;4.95;;;1.13;;
64197;SDS011;50512;53.666;9.700;2023-07-20T08:57:07;3.05;;;1.33;;
64197;SDS011;50512;53.666;9.700;2023-07-20T08:59:36;7.57;;;1.83;;
64197;SDS011;50512;53.666;9.700;2023-07-20T09:02:03;4.38;;;1.65;;
64197;SDS011;50512;53.666;9.700;2023-07-20T09:04:31;3.25;;;1.30;;
64197;SDS011;50512;53.666;9.700;2023-07-20T09:06:58;7.13;;;1.63;;
64197;SDS011;50512;53.666;9.700;2023-07-20T09:09:24;6.97;;;1.27;;
64197;SDS011;50512;53.666;9.700;2023-07-20T09:11:51;3.53;;;1.30;;
64197;SDS011;50512;53.666;9.700;2023-07-20T09:14:17;4.47;;;1.30;;
64197;SDS011;50512;53.666;9.700;2023-07-20T09:16:49;3.60;;;1.08;;
64197;SDS011;50512;53.666;9.700;2023-07-20T09:19:16;4.10;;;0.95;;
64197;SDS011;50512;53.666;9.700;2023-07-20T09:21:46;2.75;;;1.40;;
64197;SDS011;50512;53.666;9.700;2023-07-20T09:24:13;5.30;;;1.30;;
64197;SDS011;50512;53.666;9.700;2023-07-20T09:26:42;4.75;;;1.10;;
64197;SDS011;50512;53.666;9.700;2023-07-20T09:29:10;3.67;;;1.00;;
64197;SDS011;50512;53.666;9.700;2023-07-20T09:31:37;3.63;;;1.08;;
64197;SDS011;50512;53.666;9.700;2023-07-20T09:34:06;2.20;;;1.05;;
64197;SDS011;50512;53.666;9.700;2023-07-20T09:36:33;2.83;;;0.90;;
64197;SDS011;50512;53.666;9.700;2023-07-20T09:39:00;2.50;;;1.10;;
64197;SDS011;50512;53.666;9.700;2023-07-20T09:41:27;7.03;;;1.17;;
64197;SDS011;50512;53.666;9.700;2023-07-20T09:43:53;4.25;;;1.00;;
64197;SDS011;50512;53.666;9.700;2023-07-20T09:46:20;5.15;;;1.00;;
64197;SDS011;50512;53.666;9.700;2023-07-20T09:48:51;3.20;;;0.77;;
64197;SDS011;50512;53.666;9.700;2023-07-20T09:51:19;2.92;;;0.93;;
64197;SDS011;50512;53.666;9.700;2023-07-20T09:53:48;3.58;;;0.98;;
64197;SDS011;50512;53.666;9.700;2023-07-20T09:56:15;4.35;;;0.73;;
64197;SDS011;50512;53.666;9.700;2023-07-20T09:58:42;5.13;;;1.02;;
64197;SDS011;50512;53.666;9.700;2023-07-20T10:01:10;1.10;;;0.60;;
64197;SDS011;50512;53.666;9.700;2023-07-20T10:03:39;1.48;;;0.80;;
64197;SDS011;50512;53.666;9.700;2023-07-20T10:06:12;3.70;;;1.00;;
64197;SDS011;50512;53.666;9.700;2023-07-20T10:08:44;2.85;;;0.80;;
64197;SDS011;50512;53.666;9.700;2023-07-20T10:11:13;4.65;;;0.90;;
64197;SDS011;50512;53.666;9.700;2023-07-20T10:13:43;2.97;;;1.30;;
64197;SDS011;50512;53.666;9.700;2023-07-20T10:16:10;6.43;;;1.30;;
64197;SDS011;50512;53.666;9.700;2023-07-20T10:18:38;8.48;;;2.08;;
64197;SDS011;50512;53.666;9.700;2023-07-20T10:21:10;5.20;;;1.20;;
64197;SDS011;50512;53.666;9.700;2023-07-20T10:23:38;8.68;;;1.80;;
64197;SDS011;50512;53.666;9.700;2023-07-20T10:26:06;3.53;;;1.10;;
64197;SDS011;50512;53.666;9.700;2023-07-20T10:28:33;5.00;;;1.17;;
64197;SDS011;50512;53.666;9.700;2023-07-20T10:31:00;1.48;;;0.70;;
64197;SDS011;50512;53.666;9.700;2023-07-20T10:33:26;3.83;;;1.05;;
64197;SDS011;50512;53.666;9.700;2023-07-20T10:35:53;4.90;;;1.27;;
64197;SDS011;50512;53.666;9.700;2023-07-20T10:41:16;6.30;;;1.07;;
64197;SDS011;50512;53.666;9.700;2023-07-20T10:43:44;4.63;;;1.05;;
64197;SDS011;50512;53.666;9.700;2023-07-20T10:46:11;4.05;;;1.05;;
64197;SDS011;50512;53.666;9.700;2023-07-20T10:51:26;2.92;;;1.00;;
64197;SDS011;50512;53.666;9.700;2023-07-20T10:53:54;5.63;;;0.90;;
64197;SDS011;50512;53.666;9.700;2023-07-20T10:56:25;2.67;;;0.90;;
64197;SDS011;50512;53.666;9.700;2023-07-20T10:58:55;2.67;;;0.70;;
64197;SDS011;50512;53.666;9.700;2023-07-20T11:01:27;1.80;;;0.80;;
64197;SDS011;50512;53.666;9.700;2023-07-20T11:03:56;3.17;;;0.80;;
64197;SDS011;50512;53.666;9.700;2023-07-20T11:06:31;1.48;;;0.63;;
64197;SDS011;50512;53.666;9.700;2023-07-20T11:09:03;3.03;;;0.98;;
64197;SDS011;50512;53.666;9.700;2023-07-20T11:11:33;1.77;;;0.95;;
64197;SDS011;50512;53.666;9.700;2023-07-20T11:14:00;2.17;;;0.70;;
64197;SDS011;50512;53.666;9.700;2023-07-20T11:16:32;1.50;;;0.77;;
64197;SDS011;50512;53.666;9.700;2023-07-20T11:19:00;2.13;;;1.02;;
64197;SDS011;50512;53.666;9.700;2023-07-20T11:21:27;4.13;;;0.80;;
64197;SDS011;50512;53.666;9.700;2023-07-20T11:23:54;2.08;;;0.80;;
64197;SDS011;50512;53.666;9.700;2023-07-20T11:26:21;5.90;;;0.98;;
64197;SDS011;50512;53.666;9.700;2023-07-20T11:28:49;7.22;;;1.25;;
64197;SDS011;50512;53.666;9.700;2023-07-20T11:31:17;6.47;;;0.90;;
64197;SDS011;50512;53.666;9.700;2023-07-20T11:33:44;3.97;;;1.13;;
64197;SDS011;50512;53.666;9.700;2023-07-20T11:36:10;2.13;;;0.90;;
64197;SDS011;50512;53.666;9.700;2023-07-20T11:38:37;4.68;;;1.30;;
64197;SDS011;50512;53.666;9.700;2023-07-20T11:41:05;6.40;;;1.05;;
64197;SDS011;50512;53.666;9.700;2023-07-20T11:43:31;5.32;;;1.05;;
64197;SDS011;50512;53.666;9.700;2023-07-20T11:45:59;4.78;;;0.95;;
64197;SDS011;50512;53.666;9.700;2023-07-20T11:48:26;8.48;;;2.20;;
64197;SDS011;50512;53.666;9.700;2023-07-20T11:50:53;3.15;;;0.80;;
64197;SDS011;50512;53.666;9.700;2023-07-20T11:53:19;5.50;;;1.67;;
64197;SDS011;50512;53.666;9.700;2023-07-20T11:55:46;6.57;;;1.23;;
64197;SDS011;50512;53.666;9.700;2023-07-20T11:58:13;10.77;;;1.33;;
64197;SDS011;50512;53.666;9.700;2023-07-20T12:00:41;5.70;;;1.15;;
64197;SDS011;50512;53.666;9.700;2023-07-20T12:03:11;2.25;;;0.60;;
64197;SDS011;50512;53.666;9.700;2023-07-20T12:05:38;5.70;;;1.27;;
64197;SDS011;50512;53.666;9.700;2023-07-20T12:08:05;3.08;;;0.70;;
64197;SDS011;50512;53.666;9.700;2023-07-20T12:10:31;3.25;;;1.00;;
64197;SDS011;50512;53.666;9.700;2023-07-20T12:13:00;3.63;;;1.20;;
64197;SDS011;50512;53.666;9.700;2023-07-20T12:15:28;5.60;;;1.17;;
64197;SDS011;50512;53.666;9.700;2023-07-20T12:17:57;3.97;;;0.70;;
64197;SDS011;50512;53.666;9.700;2023-07-20T12:20:27;5.85;;;1.77;;
64197;SDS011;50512;53.666;9.700;2023-07-20T12:22:59;4.18;;;1.35;;
64197;SDS011;50512;53.666;9.700;2023-07-20T12:25:33;2.95;;;0.70;;
64197;SDS011;50512;53.666;9.700;2023-07-20T12:28:04;4.55;;;0.90;;
64197;SDS011;50512;53.666;9.700;2023-07-20T12:30:31;2.45;;;0.88;;
64197;SDS011;50512;53.666;9.700;2023-07-20T12:32:58;4.25;;;0.98;;
64197;SDS011;50512;53.666;9.700;2023-07-20T12:35:24;3.95;;;0.65;;
64197;SDS011;50512;53.666;9.700;2023-07-20T12:37:52;3.97;;;0.90;;
64197;SDS011;50512;53.666;9.700;2023-07-20T12:40:19;1.42;;;0.50;;
64197;SDS011;50512;53.666;9.700;2023-07-20T12:42:46;3.03;;;0.80;;
64197;SDS011;50512;53.666;9.700;2023-07-20T12:45:12;1.60;;;0.90;;
64197;SDS011;50512;53.666;9.700;2023-07-20T12:47:39;2.20;;;0.93;;
64197;SDS011;50512;53.666;9.700;2023-07-20T12:50:06;3.47;;;0.85;;
64197;SDS011;50512;53.666;9.700;2023-07-20T12:52:35;2.50;;;0.90;;
64197;SDS011;50512;53.666;9.700;2023-07-20T12:55:04;2.03;;;0.80;;
64197;SDS011;50512;53.666;9.700;2023-07-20T12:57:32;3.80;;;1.30;;
64197;SDS011;50512;53.666;9.700;2023-07-20T12:59:59;3.65;;;0.85;;
64197;SDS011;50512;53.666;9.700;2023-07-20T13:02:25;3.78;;;1.17;;
64197;SDS011;50512;53.666;9.700;2023-07-20T13:04:52;2.47;;;1.00;;
64197;SDS011;50512;53.666;9.700;2023-07-20T13:07:22;4.30;;;1.02;;
64197;SDS011;50512;53.666;9.700;2023-07-20T13:09:55;7.13;;;1.10;;
64197;SDS011;50512;53.666;9.700;2023-07-20T13:12:23;4.25;;;1.10;;
64197;SDS011;50512;53.666;9.700;2023-07-20T13:14:49;2.90;;;1.15;;
64197;SDS011;50512;53.666;9.700;2023-07-20T13:17:16;3.80;;;1.20;;
64197;SDS011;50512;53.666;9.700;2023-07-20T13:19:42;4.78;;;1.08;;
64197;SDS011;50512;53.666;9.700;2023-07-20T13:22:09;3.78;;;1.23;;
64197;SDS011;50512;53.666;9.700;2023-07-20T13:24:35;4.75;;;1.10;;
64197;SDS011;50512;53.666;9.700;2023-07-20T13:27:02;6.70;;;1.42;;
64197;SDS011;50512;53.666;9.700;2023-07-20T13:29:31;4.20;;;1.27;;
64197;SDS011;50512;53.666;9.700;2023-07-20T13:31:58;5.10;;;1.30;;
64197;SDS011;50512;53.666;9.700;2023-07-20T13:34:25;5.15;;;1.00;;
64197;SDS011;50512;53.666;9.700;2023-07-20T13:36:52;2.53;;;1.15;;
64197;SDS011;50512;53.666;9.700;2023-07-20T13:39:18;4.40;;;1.20;;
64197;SDS011;50512;53.666;9.700;2023-07-20T13:41:45;5.00;;;0.90;;
64197;SDS011;50512;53.666;9.700;2023-07-20T13:44:11;2.38;;;0.80;;
64197;SDS011;50512;53.666;9.700;2023-07-20T13:46:39;4.97;;;1.00;;
64197;SDS011;50512;53.666;9.700;2023-07-20T13:49:06;2.70;;;1.05;;
64197;SDS011;50512;53.666;9.700;2023-07-20T13:51:32;3.75;;;1.20;;
64197;SDS011;50512;53.666;9.700;2023-07-20T13:53:58;2.67;;;1.27;;
64197;SDS011;50512;53.666;9.700;2023-07-20T13:56:25;5.28;;;1.20;;
64197;SDS011;50512;53.666;9.700;2023-07-20T13:58:53;4.65;;;0.95;;
64197;SDS011;50512;53.666;9.700;2023-07-20T14:01:19;3.28;;;1.00;;
64197;SDS011;50512;53.666;9.700;2023-07-20T14:03:49;5.72;;;1.00;;
64197;SDS011;50512;53.666;9.700;2023-07-20T14:06:16;2.10;;;1.10;;
64197;SDS011;50512;53.666;9.700;2023-07-20T14:08:42;2.20;;;1.02;;
64197;SDS011;50512;53.666;9.700;2023-07-20T14:11:11;5.45;;;1.30;;
64197;SDS011;50512;53.666;9.700;2023-07-20T14:13:38;8.90;;;1.63;;
64197;SDS011;50512;53.666;9.700;2023-07-20T14:16:04;7.75;;;1.38;;
64197;SDS011;50512;53.666;9.700;2023-07-20T14:18:31;4.85;;;1.52;;
64197;SDS011;50512;53.666;9.700;2023-07-20T14:20:59;5.35;;;1.30;;
64197;SDS011;50512;53.666;9.700;2023-07-20T14:23:27;4.05;;;1.13;;
64197;SDS011;50512;53.666;9.700;2023-07-20T14:25:53;6.20;;;1.40;;
64197;SDS011;50512;53.666;9.700;2023-07-20T14:28:20;5.20;;;1.50;;
64197;SDS011;50512;53.666;9.700;2023-07-20T14:30:46;6.18;;;1.60;;
64197;SDS011;50512;53.666;9.700;2023-07-20T14:33:13;5.70;;;1.50;;
64197;SDS011;50512;53.666;9.700;2023-07-20T14:35:39;2.15;;;1.20;;
64197;SDS011;50512;53.666;9.700;2023-07-20T14:38:07;4.13;;;1.58;;
64197;SDS011;50512;53.666;9.700;2023-07-20T14:40:35;8.15;;;1.30;;
64197;SDS011;50512;53.666;9.700;2023-07-20T14:43:01;4.32;;;1.10;;
64197;SDS011;50512;53.666;9.700;2023-07-20T14:45:28;6.80;;;2.13;;
64197;SDS011;50512;53.666;9.700;2023-07-20T14:47:54;4.88;;;1.70;;
64197;SDS011;50512;53.666;9.700;2023-07-20T14:50:21;7.07;;;1.55;;